Time;durP1;ratioP1;P1;durP2;ratioP2;P2;SDS_P1;SDS_P2;PMS_P1;PMS_P2;Temp;Humidity;BMP_temperature;BMP_pressure;BME280_temperature;BME280_humidity;BME280_pressure;Samples;Min_cycle;Max_cycle;Signal;HPM_P1;HPM_P2
2021/04/17 00:01:41;;;;;;;137.13;70.32;;;5.40;94.50;;;;;;5116833;28;20382;-72
2021/04/17 00:04:08;;;;;;;143.80;73.60;;;5.40;95.60;;;;;;5098748;28;20487;-72
2021/04/17 00:06:35;;;;;;;132.02;69.43;;;5.30;95.60;;;;;;5117048;28;20016;-70
2021/04/17 00:09:08;;;;;;;124.45;67.18;;;5.40;95.20;;;;;;5116503;28;20373;-71
2021/04/17 00:11:35;;;;;;;137.57;69.20;;;5.40;94.60;;;;;;5098722;28;20028;-71
2021/04/17 00:14:03;;;;;;;134.73;70.18;;;5.40;94.80;;;;;;5116879;28;20027;-71
2021/04/17 00:16:29;;;;;;;126.93;70.90;;;5.40;95.00;;;;;;5116866;28;20024;-71
2021/04/17 00:18:55;;;;;;;134.40;67.25;;;5.20;95.70;;;;;;5116809;28;20023;-71
2021/04/17 00:21:21;;;;;;;128.32;68.60;;;5.20;95.60;;;;;;5116720;28;20504;-72
2021/04/17 00:23:47;;;;;;;154.27;77.90;;;5.20;96.50;;;;;;5116707;28;20032;-70
2021/04/17 00:26:12;;;;;;;159.15;80.80;;;5.20;96.60;;;;;;5098435;28;20387;-72
2021/04/17 00:28:38;;;;;;;178.48;89.10;;;5.10;96.60;;;;;;5116663;28;20027;-72
2021/04/17 00:31:04;;;;;;;179.38;89.35;;;5.20;96.50;;;;;;5098419;28;20122;-71
2021/04/17 00:33:30;;;;;;;179.20;92.80;;;5.30;97.20;;;;;;5116548;28;20036;-71
2021/04/17 00:35:56;;;;;;;180.40;88.10;;;5.30;97.10;;;;;;5098154;28;20482;-70
2021/04/17 00:38:22;;;;;;;155.55;81.60;;;5.30;97.10;;;;;;5116123;28;20020;-71
2021/04/17 00:40:48;;;;;;;164.88;81.70;;;5.30;97.30;;;;;;5116371;28;20028;-72
2021/04/17 00:43:13;;;;;;;176.10;79.00;;;5.30;96.80;;;;;;5116401;28;20032;-72
2021/04/17 00:45:39;;;;;;;141.15;67.63;;;5.20;96.70;;;;;;5097678;28;20110;-71
2021/04/17 00:48:06;;;;;;;114.78;59.17;;;5.20;96.90;;;;;;5097926;28;20027;-71
2021/04/17 00:50:32;;;;;;;104.07;52.10;;;5.10;97.10;;;;;;5116274;28;20027;-69
2021/04/17 00:52:58;;;;;;;83.53;44.95;;;5.10;97.50;;;;;;5116245;28;20019;-70
2021/04/17 00:55:24;;;;;;;78.68;43.25;;;5.10;97.80;;;;;;5115924;28;20452;-71
2021/04/17 00:57:50;;;;;;;75.80;42.97;;;5.10;98.00;;;;;;5116329;28;20414;-68
2021/04/17 01:00:17;;;;;;;61.38;31.98;;;5.00;98.70;;;;;;5097098;28;20080;-71
2021/04/17 01:02:49;;;;;;;58.55;33.55;;;5.00;98.40;;;;;;5116313;28;20031;-71
2021/04/17 01:05:19;;;;;;;64.00;34.38;;;5.00;98.30;;;;;;5115915;28;20483;-68
2021/04/17 01:07:49;;;;;;;67.30;36.40;;;4.90;98.60;;;;;;5115992;28;20084;-69
2021/04/17 01:10:31;;;;;;;59.22;34.08;;;4.90;98.70;;;;;;5116464;28;20027;-69
2021/04/17 01:12:59;;;;;;;64.60;36.28;;;4.80;98.60;;;;;;5117096;28;20038;-70
2021/04/17 01:15:25;;;;;;;62.20;35.97;;;4.80;98.30;;;;;;5116621;28;20088;-68
2021/04/17 01:17:54;;;;;;;66.82;37.17;;;4.80;98.90;;;;;;5116994;28;20024;-68
2021/04/17 01:20:38;;;;;;;64.93;36.25;;;4.80;98.40;;;;;;5115865;28;20038;-69
2021/04/17 01:23:16;;;;;;;64.05;36.40;;;4.80;98.10;;;;;;5116154;28;20034;-68
2021/04/17 01:26:06;;;;;;;67.75;37.65;;;4.80;98.30;;;;;;5097745;28;20027;-70
2021/04/17 01:28:36;;;;;;;68.00;37.88;;;4.70;98.50;;;;;;5115608;28;20019;-69
2021/04/17 01:31:04;;;;;;;73.10;38.28;;;4.60;98.90;;;;;;5115481;28;20036;-70
2021/04/17 01:33:33;;;;;;;67.30;36.42;;;4.60;99.30;;;;;;5097103;28;20119;-70
2021/04/17 01:36:03;;;;;;;61.53;35.38;;;4.70;99.50;;;;;;5115411;28;20102;-69
2021/04/17 01:38:42;;;;;;;64.95;35.80;;;4.70;98.90;;;;;;5097039;28;20031;-70
2021/04/17 01:41:16;;;;;;;70.95;38.08;;;4.70;99.20;;;;;;5115069;28;20456;-70
2021/04/17 01:43:43;;;;;;;81.07;44.50;;;4.70;99.90;;;;;;5096731;28;20035;-71
2021/04/17 01:46:17;;;;;;;62.38;33.05;;;4.70;99.90;;;;;;5115168;28;20035;-70
2021/04/17 01:48:44;;;;;;;63.13;33.80;;;4.70;98.40;;;;;;5115160;28;20033;-72
2021/04/17 01:51:11;;;;;;;93.25;49.70;;;4.60;98.60;;;;;;5096629;28;20032;-72
2021/04/17 01:53:40;;;;;;;102.75;55.58;;;4.40;98.50;;;;;;5096720;28;20349;-72
2021/04/17 01:56:08;;;;;;;95.63;52.25;;;4.30;98.50;;;;;;5114633;28;20036;-73
2021/04/17 01:58:38;;;;;;;102.25;55.15;;;4.30;98.40;;;;;;5115170;28;20027;-71
2021/04/17 02:01:05;;;;;;;112.63;55.80;;;4.30;98.20;;;;;;5115140;28;20038;-70
2021/04/17 02:03:31;;;;;;;97.63;53.38;;;4.30;98.10;;;;;;5114826;28;20027;-72
2021/04/17 02:05:57;;;;;;;109.53;55.03;;;4.30;98.40;;;;;;5096383;28;20019;-71
2021/04/17 02:08:23;;;;;;;101.82;54.20;;;4.20;98.70;;;;;;5092631;28;20108;-71
2021/04/17 02:10:51;;;;;;;90.10;47.40;;;4.30;99.00;;;;;;5092958;28;20369;-72
2021/04/17 02:13:18;;;;;;;64.22;38.53;;;4.30;99.90;;;;;;5093900;28;20400;-72
2021/04/17 02:15:44;;;;;;;66.60;37.80;;;4.30;99.90;;;;;;5094221;28;20032;-71
2021/04/17 02:18:22;;;;;;;74.20;37.00;;;4.30;99.90;;;;;;5094160;28;20423;-69
2021/04/17 02:20:52;;;;;;;60.70;36.08;;;4.30;99.70;;;;;;5094033;28;20441;-69
2021/04/17 02:23:20;;;;;;;75.57;37.58;;;4.30;99.90;;;;;;5092818;28;20078;-69
2021/04/17 02:25:46;;;;;;;70.78;36.03;;;4.30;99.90;;;;;;5094319;28;20020;-69
2021/04/17 02:28:12;;;;;;;59.58;35.08;;;4.30;99.90;;;;;;5094011;28;20048;-69
2021/04/17 02:30:38;;;;;;;72.95;37.58;;;4.40;99.60;;;;;;5092637;28;20036;-69
2021/04/17 02:33:05;;;;;;;64.55;37.33;;;4.40;99.60;;;;;;5092577;28;20026;-71
2021/04/17 02:35:31;;;;;;;66.57;36.58;;;4.40;99.90;;;;;;5092544;28;20529;-71
2021/04/17 02:37:57;;;;;;;63.40;35.33;;;4.40;99.90;;;;;;5093770;28;20047;-71
2021/04/17 02:40:23;;;;;;;60.85;35.38;;;4.40;99.90;;;;;;5093648;28;20036;-70
2021/04/17 02:42:49;;;;;;;70.32;38.45;;;4.40;99.80;;;;;;5093770;28;20028;-71
2021/04/17 02:45:15;;;;;;;67.07;40.67;;;4.40;99.40;;;;;;5093981;28;20105;-71
2021/04/17 02:47:41;;;;;;;85.22;43.67;;;4.30;99.90;;;;;;5092366;28;20058;-72
2021/04/17 02:50:07;;;;;;;84.72;46.42;;;4.20;99.80;;;;;;5092231;28;20055;-70
2021/04/17 02:52:33;;;;;;;78.40;44.92;;;4.10;99.90;;;;;;5092306;28;20034;-70
2021/04/17 02:54:59;;;;;;;84.47;45.15;;;4.00;99.90;;;;;;5093555;28;20099;-72
2021/04/17 02:57:25;;;;;;;83.07;44.92;;;4.00;99.90;;;;;;5093541;28;20107;-70
2021/04/17 02:59:50;;;;;;;74.55;42.80;;;4.00;99.90;;;;;;5092037;28;20464;-71
2021/04/17 03:02:16;;;;;;;79.07;43.95;;;4.00;99.90;;;;;;5093483;28;20058;-70
2021/04/17 03:04:42;;;;;;;81.38;44.75;;;4.00;99.70;;;;;;5093442;28;20368;-71
2021/04/17 03:07:08;;;;;;;78.15;44.58;;;4.00;99.80;;;;;;5093369;28;20031;-72
2021/04/17 03:09:34;;;;;;;80.32;44.17;;;3.90;99.90;;;;;;5091812;28;20048;-72
2021/04/17 03:12:00;;;;;;;77.07;43.75;;;4.00;99.30;;;;;;5093279;28;20020;-71
2021/04/17 03:14:29;;;;;;;84.43;47.03;;;4.00;99.70;;;;;;5093244;28;20024;-69
2021/04/17 03:16:54;;;;;;;90.10;49.13;;;4.00;99.90;;;;;;5091924;28;20026;-70
2021/04/17 03:19:20;;;;;;;91.55;50.30;;;3.90;99.90;;;;;;5091920;28;20107;-72
2021/04/17 03:21:46;;;;;;;89.43;48.50;;;3.70;99.60;;;;;;5091732;28;20036;-71
2021/04/17 03:24:12;;;;;;;90.20;50.53;;;3.60;99.40;;;;;;5092762;28;20035;-72
2021/04/17 03:26:38;;;;;;;91.60;47.55;;;3.50;99.60;;;;;;5091765;28;20028;-70
2021/04/17 03:29:04;;;;;;;96.07;48.67;;;3.40;99.90;;;;;;5093154;28;20052;-71
2021/04/17 03:31:30;;;;;;;88.20;45.53;;;3.40;99.90;;;;;;5091781;28;20028;-70
2021/04/17 03:33:56;;;;;;;74.40;40.37;;;3.30;99.90;;;;;;5093140;28;20028;-71
2021/04/17 03:36:21;;;;;;;83.23;41.53;;;3.20;99.90;;;;;;5091705;28;20460;-73
2021/04/17 03:38:47;;;;;;;76.20;41.80;;;3.20;99.90;;;;;;5091723;28;20024;-71
2021/04/17 03:41:13;;;;;;;70.83;37.70;;;3.20;99.90;;;;;;5093063;28;20410;-73
2021/04/17 03:43:39;;;;;;;74.87;39.43;;;3.20;99.90;;;;;;5091662;28;20888;-71
2021/04/17 03:46:05;;;;;;;75.47;38.47;;;3.30;99.90;;;;;;5092975;28;20114;-71
2021/04/17 03:48:31;;;;;;;76.20;41.88;;;3.40;99.90;;;;;;5092923;28;20091;-72
2021/04/17 03:50:58;;;;;;;85.30;43.30;;;3.40;99.90;;;;;;5092891;28;20027;-74
2021/04/17 03:53:24;;;;;;;90.30;47.03;;;3.50;99.90;;;;;;5091573;28;20028;-71
2021/04/17 03:55:49;;;;;;;78.47;45.07;;;3.50;99.60;;;;;;5092849;28;20465;-71
2021/04/17 03:58:15;;;;;;;86.23;44.93;;;3.50;99.30;;;;;;5092878;28;20028;-74
2021/04/17 04:00:41;;;;;;;84.63;44.55;;;3.50;99.30;;;;;;5100971;28;20028;-72
2021/04/17 04:03:07;;;;;;;78.28;44.55;;;3.50;99.30;;;;;;5090397;28;20162;-72
2021/04/17 04:05:33;;;;;;;79.45;41.22;;;3.60;99.10;;;;;;5092822;28;20031;-72
2021/04/17 04:07:59;;;;;;;67.93;39.17;;;3.60;98.80;;;;;;5099129;28;20476;-70
2021/04/17 04:10:25;;;;;;;69.57;39.30;;;3.60;99.10;;;;;;5112789;28;20058;-72
2021/04/17 04:12:50;;;;;;;70.17;40.77;;;3.60;98.90;;;;;;5113038;28;20034;-72
2021/04/17 04:15:16;;;;;;;66.28;38.30;;;3.70;98.80;;;;;;5113076;28;20066;-72
2021/04/17 04:17:42;;;;;;;70.18;38.30;;;3.70;98.90;;;;;;5094715;28;20080;-71
2021/04/17 04:20:09;;;;;;;69.50;36.47;;;3.80;98.80;;;;;;5094351;28;20028;-72
2021/04/17 04:22:35;;;;;;;70.55;37.72;;;3.80;98.70;;;;;;5112948;28;20031;-71
2021/04/17 04:25:03;;;;;;;73.60;39.97;;;3.90;98.70;;;;;;5113176;28;20023;-72
2021/04/17 04:27:29;;;;;;;74.10;40.55;;;3.90;98.50;;;;;;5112661;28;20464;-72
2021/04/17 04:29:55;;;;;;;81.85;40.63;;;4.00;98.70;;;;;;5094595;28;20024;-73
2021/04/17 04:32:20;;;;;;;68.80;38.25;;;4.10;98.70;;;;;;5112828;28;20024;-68
2021/04/17 04:34:47;;;;;;;75.50;39.55;;;4.10;98.70;;;;;;5094613;28;20039;-71
2021/04/17 04:37:13;;;;;;;89.05;46.45;;;4.20;98.40;;;;;;5116335;28;20033;-70
2021/04/17 04:39:39;;;;;;;76.50;42.25;;;4.30;98.70;;;;;;5116431;28;20028;-72
2021/04/17 04:42:05;;;;;;;82.00;43.72;;;4.40;98.50;;;;;;5098071;28;20441;-72
2021/04/17 04:44:31;;;;;;;100.95;44.38;;;4.40;98.10;;;;;;5116419;28;20019;-71
2021/04/17 04:46:57;;;;;;;88.78;43.13;;;4.50;98.60;;;;;;5116320;28;20023;-72
2021/04/17 04:49:23;;;;;;;71.43;39.85;;;4.60;98.40;;;;;;5097947;28;20027;-72
2021/04/17 04:51:48;;;;;;;64.85;37.05;;;4.50;98.10;;;;;;5116264;28;20031;-69
2021/04/17 04:54:14;;;;;;;69.63;36.17;;;4.50;97.30;;;;;;5115969;28;20424;-72
2021/04/17 04:56:40;;;;;;;61.63;35.83;;;4.50;97.40;;;;;;5116136;28;20024;-71
2021/04/17 04:59:06;;;;;;;61.75;34.00;;;4.40;97.40;;;;;;5116329;28;20028;-71
2021/04/17 05:01:32;;;;;;;63.78;35.47;;;4.40;97.50;;;;;;5115948;28;20173;-72
2021/04/17 05:03:58;;;;;;;64.18;35.58;;;4.30;98.40;;;;;;5115993;28;20032;-68
2021/04/17 05:06:23;;;;;;;62.72;33.90;;;4.20;97.80;;;;;;5115624;28;20034;-70
2021/04/17 05:08:49;;;;;;;70.30;39.40;;;4.20;98.20;;;;;;5093955;28;20377;-72
2021/04/17 05:11:15;;;;;;;64.43;36.37;;;4.30;98.90;;;;;;5095460;28;20032;-71
2021/04/17 05:13:41;;;;;;;66.90;36.58;;;4.30;98.50;;;;;;5095487;28;20035;-71
2021/04/17 05:16:07;;;;;;;85.80;42.88;;;4.40;98.20;;;;;;5093778;28;20024;-69
2021/04/17 05:18:33;;;;;;;87.38;45.00;;;4.40;98.80;;;;;;5095350;28;20081;-70
2021/04/17 05:20:59;;;;;;;76.55;42.97;;;4.40;98.40;;;;;;5093948;28;20035;-70
2021/04/17 05:23:25;;;;;;;78.03;43.25;;;4.40;98.30;;;;;;5093964;28;20028;-72
2021/04/17 05:25:50;;;;;;;76.07;42.00;;;4.50;98.70;;;;;;5093564;28;20024;-70
2021/04/17 05:28:16;;;;;;;78.47;41.40;;;4.70;98.20;;;;;;5095152;28;20036;-71
2021/04/17 05:30:42;;;;;;;91.22;48.55;;;4.80;98.50;;;;;;5093796;28;20472;-70
2021/04/17 05:33:08;;;;;;;80.07;45.38;;;4.80;98.50;;;;;;5094575;28;20036;-71
2021/04/17 05:35:33;;;;;;;83.47;44.47;;;4.90;98.10;;;;;;5093381;28;20106;-70
2021/04/17 05:38:00;;;;;;;79.57;44.85;;;4.80;97.90;;;;;;5095180;28;20044;-72
2021/04/17 05:40:25;;;;;;;97.95;58.20;;;4.90;97.70;;;;;;5092853;28;20028;-71
2021/04/17 05:42:51;;;;;;;108.55;54.97;;;5.00;97.80;;;;;;5092721;28;20024;-70
2021/04/17 05:45:17;;;;;;;83.50;45.75;;;5.10;97.50;;;;;;5095110;28;20144;-72
2021/04/17 05:47:43;;;;;;;379.25;155.02;;;5.30;97.70;;;;;;5094180;28;20028;-72
2021/04/17 05:50:09;;;;;;;101.10;62.25;;;5.30;97.70;;;;;;5094680;28;20036;-70
2021/04/17 05:52:35;;;;;;;99.05;59.08;;;5.30;97.60;;;;;;5094897;28;20092;-71
2021/04/17 05:55:01;;;;;;;102.28;57.47;;;5.50;98.20;;;;;;5093181;28;20024;-70
2021/04/17 05:57:28;;;;;;;104.38;59.55;;;;;;;;;;5093249;28;20020;-71
2021/04/17 05:59:53;;;;;;;106.88;58.00;;;5.80;97.90;;;;;;5094063;28;20035;-70
2021/04/17 06:02:19;;;;;;;84.50;49.90;;;5.90;97.10;;;;;;5092934;28;20032;-72
2021/04/17 06:04:46;;;;;;;79.80;46.80;;;6.20;96.70;;;;;;5094497;28;20103;-71
2021/04/17 06:07:12;;;;;;;85.45;50.53;;;6.40;96.50;;;;;;5094412;28;20016;-74
2021/04/17 06:09:37;;;;;;;82.90;45.15;;;6.50;97.10;;;;;;5092939;28;20422;-71
2021/04/17 06:12:04;;;;;;;83.07;43.85;;;6.60;97.40;;;;;;5094115;28;20030;-69
2021/04/17 06:14:30;;;;;;;67.22;38.50;;;6.80;96.40;;;;;;5092945;28;20024;-73
2021/04/17 06:16:55;;;;;;;65.28;34.35;;;6.90;97.80;;;;;;5093928;28;20111;-70
2021/04/17 06:19:21;;;;;;;65.78;35.15;;;7.00;98.40;;;;;;5093860;28;20073;-69
2021/04/17 06:21:47;;;;;;;68.63;38.38;;;7.20;97.70;;;;;;5093990;28;20028;-69
2021/04/17 06:24:13;;;;;;;78.00;40.97;;;7.30;97.10;;;;;;5094120;28;20031;-71
2021/04/17 06:26:39;;;;;;;70.55;40.97;;;7.20;96.20;;;;;;5092654;28;20020;-70
2021/04/17 06:29:05;;;;;;;77.60;47.17;;;7.10;96.60;;;;;;5093978;28;20031;-70
2021/04/17 06:31:31;;;;;;;73.47;44.70;;;7.10;96.20;;;;;;5092543;28;20028;-69
2021/04/17 06:33:57;;;;;;;71.68;41.33;;;7.00;96.10;;;;;;5093890;28;20384;-69
2021/04/17 06:36:24;;;;;;;92.78;48.60;;;7.10;96.70;;;;;;5093872;28;20021;-69
2021/04/17 06:38:50;;;;;;;79.95;45.85;;;7.20;97.00;;;;;;5093766;28;20027;-69
2021/04/17 06:41:18;;;;;;;71.70;40.70;;;7.40;97.60;;;;;;5093611;28;20032;-69
2021/04/17 06:43:44;;;;;;;77.20;43.08;;;7.60;97.90;;;;;;5092520;28;20043;-70
2021/04/17 06:46:14;;;;;;;74.45;44.22;;;7.80;96.20;;;;;;5092276;28;20026;-67
2021/04/17 06:48:40;;;;;;;71.80;44.45;;;8.00;95.60;;;;;;5093614;28;20029;-67
2021/04/17 06:51:16;;;;;;;78.45;45.25;;;8.10;93.70;;;;;;5093505;28;20085;-68
2021/04/17 06:53:43;;;;;;;70.68;43.58;;;8.40;94.60;;;;;;5093508;28;20024;-68
2021/04/17 06:56:09;;;;;;;69.80;42.53;;;8.60;94.70;;;;;;5093433;28;20020;-69
2021/04/17 06:58:38;;;;;;;65.05;38.63;;;8.70;92.80;;;;;;5092702;28;20103;-69
2021/04/17 07:01:04;;;;;;;59.92;38.05;;;8.80;91.30;;;;;;5092056;28;20384;-70
2021/04/17 07:03:30;;;;;;;59.92;37.38;;;9.00;89.10;;;;;;5092001;28;20028;-67
2021/04/17 07:05:56;;;;;;;64.47;36.63;;;9.00;88.80;;;;;;5093434;28;20024;-68
2021/04/17 07:08:22;;;;;;;63.67;38.10;;;9.10;88.10;;;;;;5102808;28;20148;-67
2021/04/17 07:10:48;;;;;;;66.68;41.53;;;9.30;87.10;;;;;;5113935;28;20028;-69
2021/04/17 07:13:15;;;;;;;64.88;40.20;;;9.40;88.70;;;;;;5095310;28;20114;-69
2021/04/17 07:15:44;;;;;;;65.53;38.10;;;9.60;88.90;;;;;;5095293;28;20034;-70
2021/04/17 07:18:29;;;;;;;65.57;37.90;;;9.70;81.20;;;;;;5113451;28;20398;-71
2021/04/17 07:21:17;;;;;;;63.42;39.17;;;9.90;79.90;;;;;;5095096;28;20024;-71
2021/04/17 07:23:45;;;;;;;57.63;35.65;;;10.00;82.60;;;;;;5094403;28;20031;-69
2021/04/17 07:26:19;;;;;;;59.90;37.05;;;10.00;81.50;;;;;;5113432;28;20031;-68
2021/04/17 07:29:13;;;;;;;55.40;35.03;;;9.90;79.30;;;;;;5113376;28;20036;-66
2021/04/17 07:31:48;;;;;;;49.70;32.13;;;10.10;82.40;;;;;;5095157;28;20036;-67
2021/04/17 07:34:17;;;;;;;55.85;35.20;;;10.10;77.30;;;;;;5113393;28;20023;-69
2021/04/17 07:36:50;;;;;;;63.10;37.15;;;10.00;80.70;;;;;;5095018;28;20027;-68
2021/04/17 07:39:54;;;;;;;43.60;28.25;;;10.20;79.90;;;;;;5113371;28;20032;-68
2021/04/17 07:42:20;;;;;;;43.97;26.52;;;10.30;84.20;;;;;;5010000;28;20041;-69
2021/04/17 07:44:48;;;;;;;46.42;29.15;;;10.40;80.00;;;;;;5010473;28;20096;-67
2021/04/17 07:47:41;;;;;;;35.55;24.40;;;10.50;78.50;;;;;;5010613;28;20034;-69
2021/04/17 07:50:09;;;;;;;31.50;21.23;;;10.50;74.10;;;;;;5008167;28;20038;-69
2021/04/17 07:52:36;;;;;;;31.30;21.42;;;10.60;72.10;;;;;;5010521;28;20501;-68
2021/04/17 07:55:05;;;;;;;31.45;19.60;;;10.70;75.40;;;;;;5008514;28;20030;-69
2021/04/17 07:57:45;;;;;;;36.78;21.33;;;10.60;73.50;;;;;;5015821;28;20034;-68
2021/04/17 08:00:17;;;;;;;28.55;19.33;;;10.70;76.20;;;;;;5010172;28;20104;-72
2021/04/17 08:02:46;;;;;;;27.25;18.02;;;10.80;73.60;;;;;;4993839;28;20041;-69
2021/04/17 08:05:13;;;;;;;26.98;18.23;;;10.90;71.80;;;;;;5010270;28;20033;-72
2021/04/17 08:07:40;;;;;;;25.42;18.80;;;11.00;71.20;;;;;;5009791;28;20050;-72
2021/04/17 08:10:07;;;;;;;26.83;18.02;;;11.10;70.60;;;;;;5012061;28;20034;-70
2021/04/17 08:12:39;;;;;;;27.40;19.83;;;11.30;69.00;;;;;;5043293;28;20093;-72
2021/04/17 08:15:08;;;;;;;58.95;25.90;;;11.30;67.90;;;;;;5098327;28;20491;-72
2021/04/17 08:17:36;;;;;;;32.28;18.90;;;11.60;69.50;;;;;;5132706;27;20117;-71
2021/04/17 08:20:03;;;;;;;26.10;17.92;;;11.70;67.50;;;;;;5137069;27;20378;-72
2021/04/17 08:22:29;;;;;;;25.55;18.80;;;12.00;66.00;;;;;;5136884;27;20494;-67
2021/04/17 08:24:55;;;;;;;25.67;18.60;;;12.20;66.50;;;;;;5136717;27;20027;-66
2021/04/17 08:27:22;;;;;;;29.52;20.50;;;12.50;66.60;;;;;;5136947;27;20026;-70
2021/04/17 08:29:55;;;;;;;35.97;22.48;;;12.40;61.30;;;;;;5137055;27;20026;-72
2021/04/17 08:32:38;;;;;;;39.92;21.85;;;;;;;;;;5118503;27;20027;-70
2021/04/17 08:35:06;;;;;;;30.40;20.88;;;;;;;;;;5118589;27;20380;-71
2021/04/17 08:37:34;;;;;;;26.50;18.35;;;;;;;;;;5137160;27;20039;-70
2021/04/17 08:40:01;;;;;;;25.88;18.70;;;;;;;;;;5118352;27;20027;-70
2021/04/17 08:42:39;;;;;;;24.63;18.73;;;;;;;;;;5118314;27;20066;-70
2021/04/17 08:45:16;;;;;;;27.70;18.08;;;;;;;;;;5136940;27;20027;-70
2021/04/17 08:47:44;;;;;;;27.30;18.30;;;;;;;;;;5136753;27;20031;-70
2021/04/17 08:50:24;;;;;;;21.63;16.58;;;;;;;;;;5136577;27;20023;-68
2021/04/17 08:53:09;;;;;;;21.52;16.08;;;;;;;;;;5136644;27;20348;-71
2021/04/17 08:55:38;;;;;;;21.75;15.18;;;;;;;;;;5118044;27;20109;-68
2021/04/17 08:58:12;;;;;;;15.93;11.38;;;;;;;;;;5118047;27;20442;-67
2021/04/17 09:00:43;;;;;;;17.17;12.10;;;;;;;;;;5136452;27;20023;-68
2021/04/17 09:03:09;;;;;;;18.02;12.32;;;;;;;;;;5136479;27;20494;-68
2021/04/17 09:05:43;;;;;;;17.75;12.25;;;;;;;;;;5117927;27;20055;-69
2021/04/17 09:08:15;;;;;;;16.13;12.05;;;;;;;;;;5117581;27;20050;-69
2021/04/17 09:10:42;;;;;;;16.05;11.65;;;;;;;;;;5117856;27;20030;-67
2021/04/17 09:13:13;;;;;;;19.02;12.18;;;;;;;;;;5136301;27;20019;-67
2021/04/17 09:15:56;;;;;;;14.07;11.07;;;;;;;;;;5136227;27;20458;-71
2021/04/17 09:18:34;;;;;;;16.00;12.77;;;;;;;;;;5135858;27;20371;-71
2021/04/17 09:21:06;;;;;;;14.40;10.05;;;;;;;;;;5135216;27;20026;-70
2021/04/17 09:23:36;;;;;;;17.52;11.85;;;;;;;;;;5135660;27;20038;-71
2021/04/17 09:26:03;;;;;;;13.38;9.60;;;;;;;;;;5136096;27;20023;-73
2021/04/17 09:28:39;;;;;;;14.45;10.50;;;;;;;;;;5117425;27;20023;-70
2021/04/17 09:31:09;;;;;;;23.17;10.80;;;;;;;;;;5117482;27;20115;-71
2021/04/17 09:33:36;;;;;;;14.80;10.70;;;;;;;;;;5117314;27;20031;-69
2021/04/17 09:36:02;;;;;;;18.55;12.88;;;;;;;;;;5135897;27;20101;-68
2021/04/17 09:38:32;;;;;;;15.38;11.35;;;;;;;;;;5117251;27;20023;-71
2021/04/17 09:40:58;;;;;;;14.02;10.52;;;;;;;;;;5135477;27;20681;-68
2021/04/17 09:43:26;;;;;;;298.67;36.42;;;;;;;;;;5135502;27;20132;-71
2021/04/17 09:45:53;;;;;;;36.15;18.48;;;13.50;52.70;;;;;;5135684;27;20486;-73
2021/04/17 09:48:22;;;;;;;25.77;13.90;;;13.70;54.80;;;;;;5116957;27;20031;-70
2021/04/17 09:50:56;;;;;;;24.58;13.02;;;13.80;53.80;;;;;;5135618;27;20027;-69
2021/04/17 09:53:31;;;;;;;26.65;15.07;;;13.80;53.70;;;;;;5135595;27;20468;-67
2021/04/17 09:56:02;;;;;;;21.05;12.82;;;14.00;54.00;;;;;;5116193;27;20030;-68
2021/04/17 09:58:37;;;;;;;19.42;11.27;;;14.00;54.60;;;;;;5111851;27;20019;-67
2021/04/17 10:01:15;;;;;;;20.15;15.20;;;14.00;53.10;;;;;;5113500;28;20028;-67
2021/04/17 10:03:42;;;;;;;24.88;15.35;;;13.80;55.60;;;;;;5096109;28;20043;-67
2021/04/17 10:06:31;;;;;;;35.10;17.13;;;13.60;55.20;;;;;;5096188;28;20028;-65
2021/04/17 10:09:14;;;;;;;19.90;13.45;;;13.50;55.10;;;;;;5096034;28;20055;-66
2021/04/17 10:11:43;;;;;;;17.42;13.38;;;13.40;56.30;;;;;;5114642;28;20027;-69
2021/04/17 10:14:11;;;;;;;18.00;12.65;;;13.40;54.50;;;;;;5114346;28;20074;-68
2021/04/17 10:16:48;;;;;;;32.88;18.67;;;13.50;54.50;;;;;;5114384;28;20035;-68
2021/04/17 10:19:19;;;;;;;26.48;16.08;;;13.30;54.30;;;;;;5114370;28;20131;-66
2021/04/17 10:21:47;;;;;;;28.05;16.27;;;13.20;56.20;;;;;;5095945;28;20024;-67
2021/04/17 10:24:21;;;;;;;24.10;16.00;;;13.00;56.80;;;;;;5095968;28;20031;-67
2021/04/17 10:27:06;;;;;;;32.70;18.40;;;13.10;56.60;;;;;;5114159;28;20020;-70
2021/04/17 10:29:48;;;;;;;32.25;16.83;;;13.00;57.30;;;;;;5114328;28;20084;-69
2021/04/17 10:32:21;;;;;;;30.88;17.52;;;12.90;57.90;;;;;;5095731;28;20024;-70
2021/04/17 10:34:50;;;;;;;30.48;19.25;;;12.90;57.40;;;;;;5113986;28;20123;-67
2021/04/17 10:37:21;;;;;;;21.75;15.45;;;12.90;57.70;;;;;;5114154;28;20027;-70
2021/04/17 10:40:07;;;;;;;19.20;14.73;;;13.00;57.30;;;;;;5114153;28;20106;-68
2021/04/17 10:43:01;;;;;;;25.42;15.93;;;13.00;56.20;;;;;;5114078;28;20032;-67
2021/04/17 10:45:30;;;;;;;34.83;18.95;;;13.00;55.30;;;;;;5095690;28;20051;-69
2021/04/17 10:48:01;;;;;;;24.27;16.13;;;13.30;57.80;;;;;;5114254;28;20467;-69
2021/04/17 10:50:30;;;;;;;20.83;14.10;;;13.30;56.30;;;;;;5095568;28;20035;-67
2021/04/17 10:53:02;;;;;;;22.25;15.02;;;13.60;54.40;;;;;;5113829;28;20044;-67
2021/04/17 10:55:48;;;;;;;22.25;16.33;;;13.90;53.70;;;;;;5113837;28;20517;-68
2021/04/17 10:58:26;;;;;;;25.48;17.77;;;14.20;53.10;;;;;;5113805;28;20023;-69
2021/04/17 11:01:06;;;;;;;27.50;18.85;;;14.60;53.00;;;;;;5113743;28;20114;-67
2021/04/17 11:03:42;;;;;;;23.83;15.40;;;14.50;52.00;;;;;;5113777;28;20114;-70
2021/04/17 11:06:16;;;;;;;23.15;16.00;;;14.70;52.50;;;;;;5113464;28;20028;-69
2021/04/17 11:08:42;;;;;;;28.65;17.38;;;15.00;51.90;;;;;;5096926;28;20048;-69
2021/04/17 11:11:11;;;;;;;19.85;15.07;;;15.10;49.90;;;;;;5080398;28;20031;-66
2021/04/17 11:13:44;;;;;;;23.92;16.95;;;15.50;50.80;;;;;;5092639;28;20078;-68
2021/04/17 11:16:12;;;;;;;18.95;14.02;;;15.40;50.80;;;;;;5095241;28;20023;-68
2021/04/17 11:18:40;;;;;;;19.83;14.85;;;15.60;48.70;;;;;;5092845;28;20403;-67
2021/04/17 11:21:12;;;;;;;38.85;22.45;;;15.80;49.90;;;;;;5092498;28;20032;-69
2021/04/17 11:23:40;;;;;;;40.17;22.65;;;15.80;49.20;;;;;;5092871;28;20058;-69
2021/04/17 11:26:16;;;;;;;29.83;18.67;;;15.60;49.20;;;;;;5093052;28;20025;-68
2021/04/17 11:29:02;;;;;;;37.38;18.58;;;15.40;49.40;;;;;;5091611;28;20027;-69
2021/04/17 11:31:30;;;;;;;35.83;20.15;;;15.40;51.50;;;;;;5092777;28;20040;-68
2021/04/17 11:34:02;;;;;;;17.83;13.52;;;15.10;50.10;;;;;;5092990;28;20020;-66
2021/04/17 11:36:31;;;;;;;16.27;13.00;;;15.20;51.10;;;;;;5092971;28;20066;-69
2021/04/17 11:38:57;;;;;;;16.17;12.55;;;15.40;49.10;;;;;;5091929;28;20388;-69
2021/04/17 11:41:24;;;;;;;16.83;12.38;;;15.00;49.20;;;;;;5092959;28;20062;-67
2021/04/17 11:43:51;;;;;;;16.35;11.63;;;15.10;50.90;;;;;;5092347;28;20020;-70
2021/04/17 11:46:17;;;;;;;15.68;12.82;;;15.00;49.30;;;;;;5096693;28;20387;-70
2021/04/17 11:48:45;;;;;;;17.83;12.52;;;15.10;50.20;;;;;;5096746;28;20016;-71
2021/04/17 11:51:11;;;;;;;17.05;12.68;;;15.00;51.10;;;;;;5096512;28;20392;-69
2021/04/17 11:53:38;;;;;;;15.15;12.15;;;15.10;49.40;;;;;;5097009;28;20105;-68
2021/04/17 11:56:05;;;;;;;17.02;12.63;;;15.00;48.10;;;;;;5096990;28;20023;-69
2021/04/17 11:58:31;;;;;;;19.20;13.50;;;14.80;50.00;;;;;;5088695;28;20024;-72
2021/04/17 12:00:58;;;;;;;15.63;12.07;;;14.80;52.90;;;;;;5088056;28;20541;-71
2021/04/17 12:03:24;;;;;;;13.95;11.38;;;14.60;52.00;;;;;;5095129;28;20077;-69
2021/04/17 12:05:52;;;;;;;15.85;12.20;;;14.70;51.20;;;;;;5096700;28;20027;-68
2021/04/17 12:08:18;;;;;;;16.38;12.50;;;14.50;51.10;;;;;;5096566;28;20040;-70
2021/04/17 12:10:45;;;;;;;16.42;11.88;;;14.70;51.50;;;;;;5096657;28;20040;-70
2021/04/17 12:13:12;;;;;;;19.70;14.00;;;14.60;51.20;;;;;;5095183;28;20028;-70
2021/04/17 12:15:39;;;;;;;51.72;25.42;;;14.50;52.10;;;;;;5096189;28;20456;-69
2021/04/17 12:18:06;;;;;;;46.28;25.98;;;14.60;52.50;;;;;;5096141;28;20020;-70
2021/04/17 12:20:32;;;;;;;38.17;21.95;;;14.60;52.60;;;;;;5096361;28;20040;-69
2021/04/17 12:22:58;;;;;;;18.15;12.10;;;14.60;49.40;;;;;;5096684;28;20031;-70
2021/04/17 12:25:24;;;;;;;15.55;11.02;;;14.90;51.40;;;;;;5096310;28;20108;-70
2021/04/17 12:27:51;;;;;;;21.10;14.02;;;15.00;52.30;;;;;;5094848;28;20074;-68
2021/04/17 12:30:18;;;;;;;17.10;13.10;;;15.00;53.40;;;;;;5096202;28;20384;-67
2021/04/17 12:32:44;;;;;;;18.38;11.93;;;15.10;51.20;;;;;;5096182;28;20073;-70
2021/04/17 12:35:14;;;;;;;15.13;10.52;;;15.00;52.30;;;;;;5096110;28;20024;-68
2021/04/17 12:37:41;;;;;;;14.48;11.55;;;15.10;51.40;;;;;;5096412;28;20166;-69
2021/04/17 12:40:08;;;;;;;18.60;12.07;;;15.30;51.90;;;;;;5095924;28;20078;-68
2021/04/17 12:42:34;;;;;;;15.02;11.02;;;15.10;51.30;;;;;;5095750;28;20034;-68
2021/04/17 12:45:00;;;;;;;12.93;10.38;;;15.20;49.80;;;;;;5094669;28;20376;-67
2021/04/17 12:47:26;;;;;;;16.70;11.07;;;15.10;50.10;;;;;;5094353;28;20028;-68
2021/04/17 12:49:52;;;;;;;15.15;11.98;;;15.10;51.80;;;;;;5095839;28;20032;-70